Sierra, Nevada
Current Conditions -  °F | °C
As of 10:15 AM on Thursday 23 Oct 2014 (Local Time) from KRTS Reporting Station
Clear Clear  
Wind Chill: 61°   Ceiling: Unl
Heat Index: 61°   Visibility: 10mi
Dew Point: 28°   Wind: 5mph
Humidity: 29%   Direction: 120°ESE
Pressure: 30.13"   Gusts: NA
Location:  39.7378°N, 119.889°W
Report Text: KRTS 231715Z AUTO 12004KT 10SM CLR 16/M02 A3013 RMK AO2
Loading
Personal Weather Stations






























Interactive Weather Map
Tropical Storm Tracking
New forecast layout! Learn more

10-Day Weather Forecast

Advertisements
Track Severe Weather on mobile